sensor_id;sensor_type;location;lat;lon;timestamp;P1;durP1;ratioP1;P2;durP2;ratioP2
10059;SDS011;5069;49.306;8.636;2023-04-24T00:01:42;1.33;;;0.90;;
10059;SDS011;5069;49.306;8.636;2023-04-24T00:04:44;4.50;;;0.90;;
10059;SDS011;5069;49.306;8.636;2023-04-24T00:07:48;1.37;;;1.10;;
10059;SDS011;5069;49.306;8.636;2023-04-24T00:10:49;1.13;;;0.83;;
10059;SDS011;5069;49.306;8.636;2023-04-24T00:13:51;2.63;;;0.80;;
10059;SDS011;5069;49.306;8.636;2023-04-24T00:16:52;1.97;;;1.10;;
10059;SDS011;5069;49.306;8.636;2023-04-24T00:19:54;1.57;;;0.90;;
10059;SDS011;5069;49.306;8.636;2023-04-24T00:23:06;0.97;;;0.90;;
10059;SDS011;5069;49.306;8.636;2023-04-24T00:26:07;2.90;;;1.03;;
10059;SDS011;5069;49.306;8.636;2023-04-24T00:29:09;3.27;;;0.90;;
10059;SDS011;5069;49.306;8.636;2023-04-24T00:32:10;1.23;;;0.90;;
10059;SDS011;5069;49.306;8.636;2023-04-24T00:35:12;1.67;;;1.00;;
10059;SDS011;5069;49.306;8.636;2023-04-24T00:38:14;2.00;;;0.90;;
10059;SDS011;5069;49.306;8.636;2023-04-24T00:41:16;3.87;;;0.90;;
10059;SDS011;5069;49.306;8.636;2023-04-24T00:44:17;1.50;;;1.03;;
10059;SDS011;5069;49.306;8.636;2023-04-24T00:47:19;2.20;;;0.87;;
10059;SDS011;5069;49.306;8.636;2023-04-24T00:50:22;1.63;;;1.00;;
10059;SDS011;5069;49.306;8.636;2023-04-24T00:53:25;1.60;;;0.83;;
10059;SDS011;5069;49.306;8.636;2023-04-24T00:56:26;4.20;;;0.90;;
10059;SDS011;5069;49.306;8.636;2023-04-24T00:59:28;0.90;;;0.70;;
10059;SDS011;5069;49.306;8.636;2023-04-24T01:02:30;3.17;;;1.07;;
10059;SDS011;5069;49.306;8.636;2023-04-24T01:05:35;1.17;;;0.70;;
10059;SDS011;5069;49.306;8.636;2023-04-24T01:08:37;2.30;;;0.90;;
10059;SDS011;5069;49.306;8.636;2023-04-24T01:11:40;2.47;;;1.10;;
10059;SDS011;5069;49.306;8.636;2023-04-24T01:14:44;2.40;;;0.90;;
10059;SDS011;5069;49.306;8.636;2023-04-24T01:17:46;1.23;;;1.00;;
10059;SDS011;5069;49.306;8.636;2023-04-24T01:20:48;1.23;;;0.80;;
10059;SDS011;5069;49.306;8.636;2023-04-24T01:23:54;1.27;;;0.80;;
10059;SDS011;5069;49.306;8.636;2023-04-24T01:26:56;1.80;;;0.90;;
10059;SDS011;5069;49.306;8.636;2023-04-24T01:29:58;3.23;;;0.83;;
10059;SDS011;5069;49.306;8.636;2023-04-24T01:32:59;1.43;;;0.93;;
10059;SDS011;5069;49.306;8.636;2023-04-24T01:36:01;1.27;;;0.90;;
10059;SDS011;5069;49.306;8.636;2023-04-24T01:39:03;1.37;;;0.80;;
10059;SDS011;5069;49.306;8.636;2023-04-24T01:42:05;2.50;;;0.87;;
10059;SDS011;5069;49.306;8.636;2023-04-24T01:45:07;2.13;;;0.80;;
10059;SDS011;5069;49.306;8.636;2023-04-24T01:48:12;1.13;;;0.70;;
10059;SDS011;5069;49.306;8.636;2023-04-24T01:51:14;1.57;;;0.87;;
10059;SDS011;5069;49.306;8.636;2023-04-24T01:54:15;1.73;;;0.90;;
10059;SDS011;5069;49.306;8.636;2023-04-24T01:57:17;2.43;;;0.90;;
10059;SDS011;5069;49.306;8.636;2023-04-24T02:00:18;2.67;;;0.87;;
10059;SDS011;5069;49.306;8.636;2023-04-24T02:03:19;2.00;;;0.90;;
10059;SDS011;5069;49.306;8.636;2023-04-24T02:06:22;2.47;;;0.90;;
10059;SDS011;5069;49.306;8.636;2023-04-24T02:09:26;1.83;;;0.90;;
10059;SDS011;5069;49.306;8.636;2023-04-24T02:12:28;2.20;;;0.90;;
10059;SDS011;5069;49.306;8.636;2023-04-24T02:15:29;3.17;;;0.90;;
10059;SDS011;5069;49.306;8.636;2023-04-24T02:18:31;2.03;;;0.90;;
10059;SDS011;5069;49.306;8.636;2023-04-24T02:21:32;2.50;;;0.80;;
10059;SDS011;5069;49.306;8.636;2023-04-24T02:24:35;1.53;;;1.07;;
10059;SDS011;5069;49.306;8.636;2023-04-24T02:27:36;2.23;;;0.80;;
10059;SDS011;5069;49.306;8.636;2023-04-24T02:30:39;1.60;;;0.80;;
10059;SDS011;5069;49.306;8.636;2023-04-24T02:33:41;1.70;;;1.10;;
10059;SDS011;5069;49.306;8.636;2023-04-24T02:36:42;1.53;;;0.90;;
10059;SDS011;5069;49.306;8.636;2023-04-24T02:39:44;2.63;;;0.90;;
10059;SDS011;5069;49.306;8.636;2023-04-24T02:42:45;2.80;;;0.93;;
10059;SDS011;5069;49.306;8.636;2023-04-24T02:45:46;1.30;;;0.90;;
10059;SDS011;5069;49.306;8.636;2023-04-24T02:48:48;1.67;;;0.90;;
10059;SDS011;5069;49.306;8.636;2023-04-24T02:51:49;2.50;;;0.93;;
10059;SDS011;5069;49.306;8.636;2023-04-24T02:54:51;0.70;;;0.70;;
10059;SDS011;5069;49.306;8.636;2023-04-24T02:57:52;2.77;;;1.10;;
10059;SDS011;5069;49.306;8.636;2023-04-24T03:00:54;1.73;;;0.90;;
10059;SDS011;5069;49.306;8.636;2023-04-24T03:03:57;3.07;;;1.17;;
10059;SDS011;5069;49.306;8.636;2023-04-24T03:06:59;2.23;;;1.00;;
10059;SDS011;5069;49.306;8.636;2023-04-24T03:10:02;2.33;;;1.00;;
10059;SDS011;5069;49.306;8.636;2023-04-24T03:13:04;1.47;;;1.10;;
10059;SDS011;5069;49.306;8.636;2023-04-24T03:16:05;2.03;;;0.87;;
10059;SDS011;5069;49.306;8.636;2023-04-24T03:19:07;3.50;;;1.07;;
10059;SDS011;5069;49.306;8.636;2023-04-24T03:22:15;1.80;;;1.10;;
10059;SDS011;5069;49.306;8.636;2023-04-24T03:25:17;3.73;;;1.43;;
10059;SDS011;5069;49.306;8.636;2023-04-24T03:28:19;1.77;;;1.50;;
10059;SDS011;5069;49.306;8.636;2023-04-24T03:31:30;2.80;;;1.17;;
10059;SDS011;5069;49.306;8.636;2023-04-24T03:34:32;2.97;;;1.50;;
10059;SDS011;5069;49.306;8.636;2023-04-24T03:37:34;2.77;;;1.43;;
10059;SDS011;5069;49.306;8.636;2023-04-24T03:40:54;2.70;;;1.50;;
10059;SDS011;5069;49.306;8.636;2023-04-24T03:44:14;3.13;;;1.60;;
10059;SDS011;5069;49.306;8.636;2023-04-24T03:47:16;1.70;;;1.57;;
10059;SDS011;5069;49.306;8.636;2023-04-24T03:50:19;3.40;;;1.80;;
10059;SDS011;5069;49.306;8.636;2023-04-24T03:53:22;2.80;;;1.53;;
10059;SDS011;5069;49.306;8.636;2023-04-24T03:56:24;2.53;;;1.50;;
10059;SDS011;5069;49.306;8.636;2023-04-24T03:59:26;2.83;;;1.73;;
10059;SDS011;5069;49.306;8.636;2023-04-24T04:02:40;2.40;;;1.60;;
10059;SDS011;5069;49.306;8.636;2023-04-24T04:05:43;3.13;;;1.40;;
10059;SDS011;5069;49.306;8.636;2023-04-24T04:08:44;3.70;;;1.40;;
10059;SDS011;5069;49.306;8.636;2023-04-24T04:11:47;2.00;;;1.30;;
10059;SDS011;5069;49.306;8.636;2023-04-24T04:14:48;1.77;;;1.40;;
10059;SDS011;5069;49.306;8.636;2023-04-24T04:17:50;4.73;;;2.17;;
10059;SDS011;5069;49.306;8.636;2023-04-24T04:20:52;2.67;;;2.13;;
10059;SDS011;5069;49.306;8.636;2023-04-24T04:23:53;3.00;;;2.00;;
10059;SDS011;5069;49.306;8.636;2023-04-24T04:27:02;4.27;;;1.60;;
10059;SDS011;5069;49.306;8.636;2023-04-24T04:30:10;2.23;;;1.50;;
10059;SDS011;5069;49.306;8.636;2023-04-24T04:33:22;2.70;;;1.90;;
10059;SDS011;5069;49.306;8.636;2023-04-24T04:36:24;3.40;;;1.87;;
10059;SDS011;5069;49.306;8.636;2023-04-24T04:39:35;2.93;;;1.73;;
10059;SDS011;5069;49.306;8.636;2023-04-24T04:42:40;2.43;;;1.87;;
10059;SDS011;5069;49.306;8.636;2023-04-24T04:45:41;3.53;;;2.10;;
10059;SDS011;5069;49.306;8.636;2023-04-24T04:48:56;4.20;;;1.80;;
10059;SDS011;5069;49.306;8.636;2023-04-24T04:51:58;2.40;;;2.20;;
10059;SDS011;5069;49.306;8.636;2023-04-24T04:55:01;9.40;;;2.70;;
10059;SDS011;5069;49.306;8.636;2023-04-24T04:58:23;2.67;;;2.27;;
10059;SDS011;5069;49.306;8.636;2023-04-24T05:01:29;2.60;;;2.20;;
10059;SDS011;5069;49.306;8.636;2023-04-24T05:04:30;2.83;;;2.63;;
10059;SDS011;5069;49.306;8.636;2023-04-24T05:07:33;3.47;;;2.40;;
10059;SDS011;5069;49.306;8.636;2023-04-24T05:10:35;4.23;;;2.20;;
10059;SDS011;5069;49.306;8.636;2023-04-24T05:13:38;2.93;;;2.37;;
10059;SDS011;5069;49.306;8.636;2023-04-24T05:16:47;2.80;;;2.20;;
10059;SDS011;5069;49.306;8.636;2023-04-24T05:19:50;3.60;;;2.37;;
10059;SDS011;5069;49.306;8.636;2023-04-24T05:22:52;2.43;;;2.20;;
10059;SDS011;5069;49.306;8.636;2023-04-24T05:25:56;3.83;;;2.30;;
10059;SDS011;5069;49.306;8.636;2023-04-24T05:28:57;3.80;;;2.60;;
10059;SDS011;5069;49.306;8.636;2023-04-24T05:31:59;3.33;;;2.27;;
10059;SDS011;5069;49.306;8.636;2023-04-24T05:35:04;2.97;;;2.50;;
10059;SDS011;5069;49.306;8.636;2023-04-24T05:38:06;2.77;;;2.53;;
10059;SDS011;5069;49.306;8.636;2023-04-24T05:41:07;4.23;;;2.60;;
10059;SDS011;5069;49.306;8.636;2023-04-24T05:44:09;4.63;;;2.60;;
10059;SDS011;5069;49.306;8.636;2023-04-24T05:47:11;4.33;;;2.70;;
10059;SDS011;5069;49.306;8.636;2023-04-24T05:50:13;4.70;;;2.70;;
10059;SDS011;5069;49.306;8.636;2023-04-24T05:53:15;4.37;;;2.70;;
10059;SDS011;5069;49.306;8.636;2023-04-24T05:56:16;3.50;;;2.70;;
10059;SDS011;5069;49.306;8.636;2023-04-24T05:59:19;3.30;;;2.83;;
10059;SDS011;5069;49.306;8.636;2023-04-24T06:02:21;4.73;;;2.83;;
10059;SDS011;5069;49.306;8.636;2023-04-24T06:05:23;3.97;;;2.63;;
10059;SDS011;5069;49.306;8.636;2023-04-24T06:08:27;4.47;;;3.13;;
10059;SDS011;5069;49.306;8.636;2023-04-24T06:11:28;4.00;;;2.80;;
10059;SDS011;5069;49.306;8.636;2023-04-24T06:14:31;3.70;;;2.83;;
10059;SDS011;5069;49.306;8.636;2023-04-24T06:17:51;6.43;;;3.80;;
10059;SDS011;5069;49.306;8.636;2023-04-24T06:20:54;4.00;;;3.50;;
10059;SDS011;5069;49.306;8.636;2023-04-24T06:23:58;6.43;;;3.97;;
10059;SDS011;5069;49.306;8.636;2023-04-24T06:26:59;4.10;;;3.40;;
10059;SDS011;5069;49.306;8.636;2023-04-24T06:30:01;4.07;;;3.67;;
10059;SDS011;5069;49.306;8.636;2023-04-24T06:33:03;5.80;;;3.60;;
10059;SDS011;5069;49.306;8.636;2023-04-24T06:36:20;4.07;;;3.20;;
10059;SDS011;5069;49.306;8.636;2023-04-24T06:39:22;4.00;;;2.37;;
10059;SDS011;5069;49.306;8.636;2023-04-24T06:42:23;2.90;;;2.60;;
10059;SDS011;5069;49.306;8.636;2023-04-24T06:45:25;4.53;;;2.27;;
10059;SDS011;5069;49.306;8.636;2023-04-24T06:48:27;3.23;;;2.07;;
10059;SDS011;5069;49.306;8.636;2023-04-24T06:51:31;2.50;;;2.03;;
10059;SDS011;5069;49.306;8.636;2023-04-24T06:54:34;4.07;;;2.20;;
10059;SDS011;5069;49.306;8.636;2023-04-24T06:57:36;2.20;;;2.00;;
10059;SDS011;5069;49.306;8.636;2023-04-24T07:00:38;2.47;;;2.10;;
10059;SDS011;5069;49.306;8.636;2023-04-24T07:03:39;1.90;;;1.70;;
10059;SDS011;5069;49.306;8.636;2023-04-24T07:06:42;4.90;;;2.50;;
10059;SDS011;5069;49.306;8.636;2023-04-24T07:09:45;3.10;;;1.93;;
10059;SDS011;5069;49.306;8.636;2023-04-24T07:12:47;2.37;;;1.80;;
10059;SDS011;5069;49.306;8.636;2023-04-24T07:15:50;2.03;;;1.83;;
10059;SDS011;5069;49.306;8.636;2023-04-24T07:18:55;2.80;;;1.80;;
10059;SDS011;5069;49.306;8.636;2023-04-24T07:22:24;2.93;;;1.93;;
10059;SDS011;5069;49.306;8.636;2023-04-24T07:25:26;5.37;;;2.30;;
10059;SDS011;5069;49.306;8.636;2023-04-24T07:28:27;2.10;;;1.37;;
10059;SDS011;5069;49.306;8.636;2023-04-24T07:31:32;2.40;;;1.50;;
10059;SDS011;5069;49.306;8.636;2023-04-24T07:34:34;2.73;;;1.63;;
10059;SDS011;5069;49.306;8.636;2023-04-24T07:37:36;2.60;;;1.43;;
10059;SDS011;5069;49.306;8.636;2023-04-24T07:40:39;1.57;;;1.47;;
10059;SDS011;5069;49.306;8.636;2023-04-24T07:43:41;1.43;;;1.33;;
10059;SDS011;5069;49.306;8.636;2023-04-24T07:46:44;1.80;;;1.67;;
10059;SDS011;5069;49.306;8.636;2023-04-24T07:49:46;2.53;;;1.60;;
10059;SDS011;5069;49.306;8.636;2023-04-24T07:52:48;1.70;;;1.60;;
10059;SDS011;5069;49.306;8.636;2023-04-24T07:55:49;4.37;;;1.70;;
10059;SDS011;5069;49.306;8.636;2023-04-24T07:58:51;3.57;;;1.70;;
10059;SDS011;5069;49.306;8.636;2023-04-24T08:01:54;1.60;;;1.50;;
10059;SDS011;5069;49.306;8.636;2023-04-24T08:04:56;1.60;;;1.50;;
10059;SDS011;5069;49.306;8.636;2023-04-24T08:08:00;2.87;;;1.53;;
10059;SDS011;5069;49.306;8.636;2023-04-24T08:11:04;2.37;;;1.37;;
10059;SDS011;5069;49.306;8.636;2023-04-24T08:14:05;1.30;;;1.20;;
10059;SDS011;5069;49.306;8.636;2023-04-24T08:17:07;1.50;;;1.40;;
10059;SDS011;5069;49.306;8.636;2023-04-24T08:20:09;1.93;;;1.23;;
10059;SDS011;5069;49.306;8.636;2023-04-24T08:23:14;1.53;;;1.30;;
10059;SDS011;5069;49.306;8.636;2023-04-24T08:26:16;2.33;;;1.40;;
10059;SDS011;5069;49.306;8.636;2023-04-24T08:29:18;1.90;;;1.50;;
10059;SDS011;5069;49.306;8.636;2023-04-24T08:32:19;1.67;;;1.43;;
10059;SDS011;5069;49.306;8.636;2023-04-24T08:35:21;2.57;;;1.70;;
10059;SDS011;5069;49.306;8.636;2023-04-24T08:38:24;2.73;;;1.50;;
10059;SDS011;5069;49.306;8.636;2023-04-24T08:41:27;4.30;;;1.53;;
10059;SDS011;5069;49.306;8.636;2023-04-24T08:44:28;1.73;;;1.20;;
10059;SDS011;5069;49.306;8.636;2023-04-24T08:47:30;1.80;;;1.30;;
10059;SDS011;5069;49.306;8.636;2023-04-24T08:50:32;1.50;;;1.40;;
10059;SDS011;5069;49.306;8.636;2023-04-24T08:53:35;1.57;;;0.93;;
10059;SDS011;5069;49.306;8.636;2023-04-24T08:56:42;2.23;;;1.30;;
10059;SDS011;5069;49.306;8.636;2023-04-24T08:59:45;2.47;;;1.30;;
10059;SDS011;5069;49.306;8.636;2023-04-24T09:02:53;1.50;;;1.27;;
10059;SDS011;5069;49.306;8.636;2023-04-24T09:05:56;1.87;;;1.37;;
10059;SDS011;5069;49.306;8.636;2023-04-24T09:09:00;2.53;;;1.20;;
10059;SDS011;5069;49.306;8.636;2023-04-24T09:12:02;2.23;;;1.53;;
10059;SDS011;5069;49.306;8.636;2023-04-24T09:15:05;2.03;;;1.40;;
10059;SDS011;5069;49.306;8.636;2023-04-24T09:18:08;1.40;;;1.30;;
10059;SDS011;5069;49.306;8.636;2023-04-24T09:21:11;2.80;;;1.73;;
10059;SDS011;5069;49.306;8.636;2023-04-24T09:24:17;2.03;;;1.40;;
10059;SDS011;5069;49.306;8.636;2023-04-24T09:27:23;3.40;;;1.40;;
10059;SDS011;5069;49.306;8.636;2023-04-24T09:30:25;3.20;;;1.60;;
10059;SDS011;5069;49.306;8.636;2023-04-24T09:33:26;6.20;;;1.50;;
10059;SDS011;5069;49.306;8.636;2023-04-24T09:36:30;3.23;;;1.50;;
10059;SDS011;5069;49.306;8.636;2023-04-24T09:39:34;3.30;;;1.73;;
10059;SDS011;5069;49.306;8.636;2023-04-24T09:42:38;6.37;;;1.50;;
10059;SDS011;5069;49.306;8.636;2023-04-24T09:45:40;3.33;;;1.57;;
10059;SDS011;5069;49.306;8.636;2023-04-24T09:48:42;3.63;;;1.40;;
10059;SDS011;5069;49.306;8.636;2023-04-24T09:51:43;2.20;;;1.13;;
10059;SDS011;5069;49.306;8.636;2023-04-24T09:54:46;2.03;;;1.50;;
10059;SDS011;5069;49.306;8.636;2023-04-24T09:57:55;2.90;;;1.60;;
10059;SDS011;5069;49.306;8.636;2023-04-24T10:00:59;2.13;;;1.60;;
10059;SDS011;5069;49.306;8.636;2023-04-24T10:04:01;2.93;;;1.83;;
10059;SDS011;5069;49.306;8.636;2023-04-24T10:07:03;4.17;;;2.07;;
10059;SDS011;5069;49.306;8.636;2023-04-24T10:10:07;2.60;;;2.07;;
10059;SDS011;5069;49.306;8.636;2023-04-24T10:13:13;3.00;;;1.97;;
10059;SDS011;5069;49.306;8.636;2023-04-24T10:16:16;3.03;;;2.10;;
10059;SDS011;5069;49.306;8.636;2023-04-24T10:19:18;2.30;;;2.00;;
10059;SDS011;5069;49.306;8.636;2023-04-24T10:22:21;2.20;;;1.77;;
10059;SDS011;5069;49.306;8.636;2023-04-24T10:25:25;3.17;;;2.40;;
10059;SDS011;5069;49.306;8.636;2023-04-24T10:28:31;2.80;;;2.30;;
10059;SDS011;5069;49.306;8.636;2023-04-24T10:31:36;2.97;;;2.00;;
10059;SDS011;5069;49.306;8.636;2023-04-24T10:34:39;2.10;;;1.77;;
10059;SDS011;5069;49.306;8.636;2023-04-24T10:37:46;4.53;;;2.30;;
10059;SDS011;5069;49.306;8.636;2023-04-24T10:41:08;3.20;;;2.63;;
10059;SDS011;5069;49.306;8.636;2023-04-24T10:44:16;2.80;;;2.60;;
10059;SDS011;5069;49.306;8.636;2023-04-24T10:47:18;5.77;;;3.10;;
10059;SDS011;5069;49.306;8.636;2023-04-24T10:50:20;4.23;;;2.93;;
10059;SDS011;5069;49.306;8.636;2023-04-24T10:53:22;3.20;;;2.50;;
10059;SDS011;5069;49.306;8.636;2023-04-24T10:56:25;2.67;;;2.30;;
10059;SDS011;5069;49.306;8.636;2023-04-24T10:59:29;2.97;;;2.37;;
10059;SDS011;5069;49.306;8.636;2023-04-24T11:02:36;3.13;;;2.43;;
10059;SDS011;5069;49.306;8.636;2023-04-24T11:05:49;4.63;;;2.80;;
10059;SDS011;5069;49.306;8.636;2023-04-24T11:08:52;3.07;;;2.70;;
10059;SDS011;5069;49.306;8.636;2023-04-24T11:12:08;4.27;;;2.60;;
10059;SDS011;5069;49.306;8.636;2023-04-24T11:15:12;2.73;;;2.33;;
10059;SDS011;5069;49.306;8.636;2023-04-24T11:18:14;2.93;;;2.63;;
10059;SDS011;5069;49.306;8.636;2023-04-24T11:21:17;3.23;;;2.77;;
10059;SDS011;5069;49.306;8.636;2023-04-24T11:27:52;3.63;;;2.70;;
10059;SDS011;5069;49.306;8.636;2023-04-24T11:34:39;2.70;;;2.50;;
10059;SDS011;5069;49.306;8.636;2023-04-24T11:37:44;5.97;;;2.63;;
10059;SDS011;5069;49.306;8.636;2023-04-24T11:41:02;3.00;;;2.70;;
10059;SDS011;5069;49.306;8.636;2023-04-24T11:44:06;4.17;;;2.80;;
10059;SDS011;5069;49.306;8.636;2023-04-24T11:47:09;3.00;;;2.40;;
10059;SDS011;5069;49.306;8.636;2023-04-24T11:50:13;2.93;;;2.70;;
10059;SDS011;5069;49.306;8.636;2023-04-24T11:53:20;4.10;;;2.60;;
10059;SDS011;5069;49.306;8.636;2023-04-24T11:56:24;4.13;;;2.50;;
10059;SDS011;5069;49.306;8.636;2023-04-24T11:59:26;4.17;;;2.90;;
10059;SDS011;5069;49.306;8.636;2023-04-24T12:02:27;5.00;;;2.90;;
10059;SDS011;5069;49.306;8.636;2023-04-24T12:05:31;3.43;;;3.13;;
10059;SDS011;5069;49.306;8.636;2023-04-24T12:08:33;4.20;;;2.90;;
10059;SDS011;5069;49.306;8.636;2023-04-24T12:11:38;3.97;;;3.00;;
10059;SDS011;5069;49.306;8.636;2023-04-24T12:14:57;4.63;;;2.77;;
10059;SDS011;5069;49.306;8.636;2023-04-24T12:18:03;4.30;;;2.97;;
10059;SDS011;5069;49.306;8.636;2023-04-24T12:21:22;4.67;;;2.70;;
10059;SDS011;5069;49.306;8.636;2023-04-24T12:24:27;3.13;;;2.40;;
10059;SDS011;5069;49.306;8.636;2023-04-24T12:27:32;3.37;;;2.53;;
10059;SDS011;5069;49.306;8.636;2023-04-24T12:30:44;3.27;;;2.70;;
10059;SDS011;5069;49.306;8.636;2023-04-24T12:33:50;6.27;;;2.53;;
10059;SDS011;5069;49.306;8.636;2023-04-24T12:36:52;3.93;;;2.60;;
10059;SDS011;5069;49.306;8.636;2023-04-24T12:40:03;3.83;;;2.43;;
10059;SDS011;5069;49.306;8.636;2023-04-24T12:43:14;3.23;;;2.40;;
10059;SDS011;5069;49.306;8.636;2023-04-24T12:46:18;3.93;;;2.67;;
10059;SDS011;5069;49.306;8.636;2023-04-24T12:49:23;4.50;;;2.17;;
10059;SDS011;5069;49.306;8.636;2023-04-24T12:52:25;2.87;;;2.10;;
10059;SDS011;5069;49.306;8.636;2023-04-24T12:55:29;2.30;;;2.00;;
10059;SDS011;5069;49.306;8.636;2023-04-24T12:58:33;2.43;;;2.23;;
10059;SDS011;5069;49.306;8.636;2023-04-24T13:01:36;3.33;;;2.47;;
10059;SDS011;5069;49.306;8.636;2023-04-24T13:04:37;4.87;;;2.97;;
10059;SDS011;5069;49.306;8.636;2023-04-24T13:07:39;3.23;;;2.27;;
10059;SDS011;5069;49.306;8.636;2023-04-24T13:10:42;3.07;;;2.30;;
10059;SDS011;5069;49.306;8.636;2023-04-24T13:13:44;6.30;;;2.57;;
10059;SDS011;5069;49.306;8.636;2023-04-24T13:16:45;3.10;;;2.50;;
10059;SDS011;5069;49.306;8.636;2023-04-24T13:19:49;2.53;;;2.30;;
10059;SDS011;5069;49.306;8.636;2023-04-24T13:22:52;4.53;;;3.47;;
10059;SDS011;5069;49.306;8.636;2023-04-24T13:25:53;3.20;;;2.70;;
10059;SDS011;5069;49.306;8.636;2023-04-24T13:28:58;4.63;;;2.83;;
10059;SDS011;5069;49.306;8.636;2023-04-24T13:32:01;4.10;;;2.87;;
10059;SDS011;5069;49.306;8.636;2023-04-24T13:35:03;4.07;;;2.90;;
10059;SDS011;5069;49.306;8.636;2023-04-24T13:38:05;4.63;;;2.80;;
10059;SDS011;5069;49.306;8.636;2023-04-24T13:41:08;4.57;;;3.33;;
10059;SDS011;5069;49.306;8.636;2023-04-24T13:44:09;2.80;;;2.30;;
10059;SDS011;5069;49.306;8.636;2023-04-24T13:47:11;6.27;;;2.80;;
10059;SDS011;5069;49.306;8.636;2023-04-24T13:50:13;4.23;;;2.60;;
10059;SDS011;5069;49.306;8.636;2023-04-24T13:53:15;5.50;;;2.93;;
10059;SDS011;5069;49.306;8.636;2023-04-24T13:56:16;3.30;;;2.43;;
10059;SDS011;5069;49.306;8.636;2023-04-24T13:59:19;3.97;;;2.63;;
10059;SDS011;5069;49.306;8.636;2023-04-24T14:02:22;2.70;;;2.50;;
10059;SDS011;5069;49.306;8.636;2023-04-24T14:05:24;3.50;;;2.57;;
10059;SDS011;5069;49.306;8.636;2023-04-24T14:08:26;3.90;;;2.40;;
10059;SDS011;5069;49.306;8.636;2023-04-24T14:11:27;3.33;;;2.50;;
10059;SDS011;5069;49.306;8.636;2023-04-24T14:14:30;4.80;;;2.20;;
10059;SDS011;5069;49.306;8.636;2023-04-24T14:17:32;3.27;;;2.60;;
10059;SDS011;5069;49.306;8.636;2023-04-24T14:20:33;5.73;;;2.40;;
10059;SDS011;5069;49.306;8.636;2023-04-24T14:23:35;3.33;;;2.37;;
10059;SDS011;5069;49.306;8.636;2023-04-24T14:26:37;3.47;;;2.80;;
10059;SDS011;5069;49.306;8.636;2023-04-24T14:29:40;4.40;;;2.40;;
10059;SDS011;5069;49.306;8.636;2023-04-24T14:32:42;4.90;;;2.50;;
10059;SDS011;5069;49.306;8.636;2023-04-24T14:35:43;2.27;;;2.07;;
10059;SDS011;5069;49.306;8.636;2023-04-24T14:38:45;3.70;;;2.70;;
10059;SDS011;5069;49.306;8.636;2023-04-24T14:41:47;3.10;;;2.60;;
10059;SDS011;5069;49.306;8.636;2023-04-24T14:44:49;4.57;;;2.43;;
10059;SDS011;5069;49.306;8.636;2023-04-24T14:47:50;3.40;;;2.30;;
10059;SDS011;5069;49.306;8.636;2023-04-24T14:50:52;4.53;;;2.47;;
10059;SDS011;5069;49.306;8.636;2023-04-24T14:53:53;2.60;;;2.33;;
10059;SDS011;5069;49.306;8.636;2023-04-24T14:56:55;3.37;;;2.50;;
10059;SDS011;5069;49.306;8.636;2023-04-24T15:00:00;3.97;;;2.80;;
10059;SDS011;5069;49.306;8.636;2023-04-24T15:03:02;3.57;;;2.90;;
10059;SDS011;5069;49.306;8.636;2023-04-24T15:06:04;3.40;;;2.80;;
10059;SDS011;5069;49.306;8.636;2023-04-24T15:09:06;3.93;;;2.90;;
10059;SDS011;5069;49.306;8.636;2023-04-24T15:12:08;4.73;;;3.37;;
10059;SDS011;5069;49.306;8.636;2023-04-24T15:15:10;4.63;;;3.03;;
10059;SDS011;5069;49.306;8.636;2023-04-24T15:18:12;4.30;;;2.97;;
10059;SDS011;5069;49.306;8.636;2023-04-24T15:21:14;3.67;;;3.20;;
10059;SDS011;5069;49.306;8.636;2023-04-24T15:24:16;3.43;;;2.77;;
10059;SDS011;5069;49.306;8.636;2023-04-24T15:27:17;6.90;;;2.93;;
10059;SDS011;5069;49.306;8.636;2023-04-24T15:30:19;3.77;;;3.03;;
10059;SDS011;5069;49.306;8.636;2023-04-24T15:33:21;4.33;;;2.97;;
10059;SDS011;5069;49.306;8.636;2023-04-24T15:36:23;6.23;;;2.50;;
10059;SDS011;5069;49.306;8.636;2023-04-24T15:39:25;5.57;;;2.47;;
10059;SDS011;5069;49.306;8.636;2023-04-24T15:42:26;2.87;;;2.50;;
10059;SDS011;5069;49.306;8.636;2023-04-24T15:45:28;4.30;;;2.87;;
10059;SDS011;5069;49.306;8.636;2023-04-24T15:48:31;4.13;;;2.73;;
10059;SDS011;5069;49.306;8.636;2023-04-24T15:51:32;3.33;;;2.50;;
10059;SDS011;5069;49.306;8.636;2023-04-24T15:54:34;7.20;;;3.00;;
10059;SDS011;5069;49.306;8.636;2023-04-24T15:57:35;2.73;;;2.53;;
10059;SDS011;5069;49.306;8.636;2023-04-24T16:00:36;5.03;;;2.80;;
10059;SDS011;5069;49.306;8.636;2023-04-24T16:03:38;4.20;;;3.10;;
10059;SDS011;5069;49.306;8.636;2023-04-24T16:06:40;3.43;;;2.63;;
10059;SDS011;5069;49.306;8.636;2023-04-24T16:09:43;2.63;;;2.43;;
10059;SDS011;5069;49.306;8.636;2023-04-24T16:12:45;3.10;;;2.10;;
10059;SDS011;5069;49.306;8.636;2023-04-24T16:15:46;2.70;;;2.50;;
10059;SDS011;5069;49.306;8.636;2023-04-24T16:18:48;2.10;;;1.90;;
10059;SDS011;5069;49.306;8.636;2023-04-24T16:21:52;2.47;;;1.67;;
10059;SDS011;5069;49.306;8.636;2023-04-24T16:24:56;1.87;;;1.67;;
10059;SDS011;5069;49.306;8.636;2023-04-24T16:27:58;2.13;;;1.80;;
10059;SDS011;5069;49.306;8.636;2023-04-24T16:31:00;1.70;;;1.60;;
10059;SDS011;5069;49.306;8.636;2023-04-24T16:34:01;1.90;;;1.57;;
10059;SDS011;5069;49.306;8.636;2023-04-24T16:37:03;3.03;;;1.80;;
10059;SDS011;5069;49.306;8.636;2023-04-24T16:40:06;4.80;;;1.80;;
10059;SDS011;5069;49.306;8.636;2023-04-24T16:43:11;2.10;;;1.80;;
10059;SDS011;5069;49.306;8.636;2023-04-24T16:46:13;5.80;;;2.27;;
10059;SDS011;5069;49.306;8.636;2023-04-24T16:49:15;1.87;;;1.77;;
10059;SDS011;5069;49.306;8.636;2023-04-24T16:52:16;1.90;;;1.80;;
10059;SDS011;5069;49.306;8.636;2023-04-24T16:55:18;1.90;;;1.80;;
10059;SDS011;5069;49.306;8.636;2023-04-24T16:58:20;2.40;;;2.20;;
10059;SDS011;5069;49.306;8.636;2023-04-24T17:01:22;2.07;;;1.87;;
10059;SDS011;5069;49.306;8.636;2023-04-24T17:04:24;2.63;;;2.03;;
10059;SDS011;5069;49.306;8.636;2023-04-24T17:07:26;2.37;;;2.07;;
10059;SDS011;5069;49.306;8.636;2023-04-24T17:10:27;2.40;;;2.20;;
10059;SDS011;5069;49.306;8.636;2023-04-24T17:13:29;2.50;;;2.30;;
10059;SDS011;5069;49.306;8.636;2023-04-24T17:16:31;2.47;;;2.17;;
10059;SDS011;5069;49.306;8.636;2023-04-24T17:19:34;3.87;;;2.50;;
10059;SDS011;5069;49.306;8.636;2023-04-24T17:22:35;4.30;;;2.53;;
10059;SDS011;5069;49.306;8.636;2023-04-24T17:25:37;3.33;;;3.03;;
10059;SDS011;5069;49.306;8.636;2023-04-24T17:28:38;3.60;;;2.40;;
10059;SDS011;5069;49.306;8.636;2023-04-24T17:31:40;5.30;;;3.10;;
10059;SDS011;5069;49.306;8.636;2023-04-24T17:34:41;5.43;;;3.60;;
10059;SDS011;5069;49.306;8.636;2023-04-24T17:37:43;4.47;;;3.47;;
10059;SDS011;5069;49.306;8.636;2023-04-24T17:40:45;3.27;;;2.50;;
10059;SDS011;5069;49.306;8.636;2023-04-24T17:43:47;4.47;;;2.53;;
10059;SDS011;5069;49.306;8.636;2023-04-24T17:46:48;2.77;;;1.87;;
10059;SDS011;5069;49.306;8.636;2023-04-24T17:49:49;3.00;;;2.10;;
10059;SDS011;5069;49.306;8.636;2023-04-24T17:52:52;2.43;;;1.90;;
10059;SDS011;5069;49.306;8.636;2023-04-24T17:55:53;2.90;;;1.93;;
10059;SDS011;5069;49.306;8.636;2023-04-24T17:58:57;5.17;;;2.23;;
10059;SDS011;5069;49.306;8.636;2023-04-24T18:01:59;2.43;;;2.23;;
10059;SDS011;5069;49.306;8.636;2023-04-24T18:05:01;3.97;;;2.20;;
10059;SDS011;5069;49.306;8.636;2023-04-24T18:08:03;3.00;;;2.10;;
10059;SDS011;5069;49.306;8.636;2023-04-24T18:11:05;2.47;;;2.00;;
10059;SDS011;5069;49.306;8.636;2023-04-24T18:14:07;3.20;;;1.57;;
10059;SDS011;5069;49.306;8.636;2023-04-24T18:17:09;2.03;;;1.70;;
10059;SDS011;5069;49.306;8.636;2023-04-24T18:20:11;3.17;;;2.27;;
10059;SDS011;5069;49.306;8.636;2023-04-24T18:23:13;3.70;;;2.00;;
10059;SDS011;5069;49.306;8.636;2023-04-24T18:26:16;2.10;;;1.90;;
10059;SDS011;5069;49.306;8.636;2023-04-24T18:29:19;2.37;;;1.70;;
10059;SDS011;5069;49.306;8.636;2023-04-24T18:32:22;4.03;;;2.03;;
10059;SDS011;5069;49.306;8.636;2023-04-24T18:35:24;1.60;;;1.50;;
10059;SDS011;5069;49.306;8.636;2023-04-24T18:38:26;1.97;;;1.60;;
10059;SDS011;5069;49.306;8.636;2023-04-24T18:41:27;4.07;;;2.10;;
10059;SDS011;5069;49.306;8.636;2023-04-24T18:44:30;2.73;;;1.80;;
10059;SDS011;5069;49.306;8.636;2023-04-24T18:47:33;2.83;;;1.70;;